Time;durP1;ratioP1;P1;durP2;ratioP2;P2;SDS_P1;SDS_P2;PMS_P1;PMS_P2;Temp;Humidity;BMP_temperature;BMP_pressure;BME280_temperature;BME280_humidity;BME280_pressure;Samples;Min_cycle;Max_cycle;Signal;HPM_P1;HPM_P2
2024/03/19 00:00:19;;;;;;;0.00;0.00;;;;;;;10.48;100.00;100129.81;6241731;22;20449;-73
2024/03/19 00:02:45;;;;;;;0.00;0.00;;;;;;;10.49;100.00;100128.72;6244788;22;20055;-73
2024/03/19 00:05:10;;;;;;;0.00;0.00;;;;;;;10.46;100.00;100123.81;6240757;22;20007;-74
2024/03/19 00:07:39;;;;;;;0.03;0.03;;;;;;;10.51;100.00;100128.44;6244761;22;20098;-74
2024/03/19 00:10:04;;;;;;;0.00;0.00;;;;;;;10.41;100.00;100116.44;6215455;22;20018;-74
2024/03/19 00:12:33;;;;;;;0.00;0.00;;;;;;;10.47;100.00;100125.47;6245362;22;20013;-76
2024/03/19 00:15:05;;;;;;;0.00;0.00;;;;;;;10.50;100.00;100130.38;6217210;22;20433;-75
2024/03/19 00:17:30;;;;;;;0.00;0.00;;;;;;;10.61;100.00;100126.53;6246048;22;20050;-73
2024/03/19 00:19:56;;;;;;;0.00;0.00;;;;;;;10.52;100.00;100106.31;6272553;22;20007;-73
2024/03/19 00:22:22;;;;;;;0.00;0.00;;;;;;;10.54;100.00;100104.13;6241841;22;20315;-75
2024/03/19 00:24:49;;;;;;;0.00;0.00;;;;;;;10.51;100.00;100093.72;6246342;22;20007;-75
2024/03/19 00:27:14;;;;;;;0.00;0.00;;;;;;;10.71;100.00;100113.97;6241108;22;20008;-74
2024/03/19 00:29:40;;;;;;;0.00;0.00;;;;;;;10.73;100.00;100112.59;6219260;22;20014;-75
2024/03/19 00:32:06;;;;;;;0.00;0.00;;;;;;;10.70;100.00;100107.66;6215352;22;20016;-74
2024/03/19 00:34:31;;;;;;;0.00;0.00;;;;;;;10.67;100.00;100101.94;6218630;22;20012;-74
2024/03/19 00:36:59;;;;;;;0.05;0.05;;;;;;;10.69;100.00;100100.56;6242883;22;20091;-74
2024/03/19 00:39:28;;;;;;;0.00;0.00;;;;;;;10.52;100.00;100089.91;6217521;22;20426;-74
2024/03/19 00:41:57;;;;;;;0.00;0.00;;;;;;;10.52;100.00;100092.63;6244434;22;20004;-74
2024/03/19 00:44:24;;;;;;;0.00;0.00;;;;;;;10.60;100.00;100113.97;6215796;22;20035;-74
2024/03/19 00:46:49;;;;;;;0.00;0.00;;;;;;;10.61;100.00;100099.19;6243754;22;20490;-75
2024/03/19 00:49:14;;;;;;;0.00;0.00;;;;;;;10.67;100.00;100113.69;6242482;22;20499;-74
2024/03/19 00:51:40;;;;;;;0.00;0.00;;;;;;;10.66;100.00;100117.53;6214533;22;20046;-74
2024/03/19 00:54:05;;;;;;;0.00;0.00;;;;;;;10.69;100.00;100122.44;6219420;22;20087;-74
2024/03/19 00:56:31;;;;;;;0.00;0.00;;;;;;;10.71;100.00;100119.44;6213383;22;20007;-74
2024/03/19 00:58:56;;;;;;;0.00;0.00;;;;;;;10.71;100.00;100119.44;6243952;22;20004;-75
2024/03/19 01:01:22;;;;;;;0.00;0.00;;;;;;;10.77;100.00;100130.09;6240122;22;20082;-73
2024/03/19 01:03:47;;;;;;;0.00;0.00;;;;;;;10.78;100.00;100122.72;6216847;22;20007;-73
2024/03/19 01:06:13;;;;;;;0.00;0.00;;;;;;;10.78;100.00;100130.91;6216791;22;20035;-73
2024/03/19 01:08:38;;;;;;;0.00;0.00;;;;;;;10.82;100.00;100132.81;6213905;22;20058;-73
2024/03/19 01:11:04;;;;;;;0.00;0.00;;;;;;;10.82;100.00;100142.97;6218826;22;20432;-73
2024/03/19 01:13:30;;;;;;;0.00;0.00;;;;;;;10.81;100.00;100131.19;6238769;22;20346;-74
2024/03/19 01:15:56;;;;;;;0.00;0.00;;;;;;;10.78;100.00;100125.44;6244887;22;20018;-73
2024/03/19 01:18:22;;;;;;;0.00;0.00;;;;;;;10.76;100.00;100117.53;6239967;22;20015;-73
2024/03/19 01:20:47;;;;;;;0.00;0.00;;;;;;;10.67;100.00;100113.69;6217223;22;20008;-74
2024/03/19 01:23:13;;;;;;;0.00;0.00;;;;;;;10.71;100.00;100122.97;6244548;22;20483;-74
2024/03/19 01:25:46;;;;;;;0.00;0.00;;;;;;;10.65;100.00;100122.16;6239601;22;19999;-73
2024/03/19 01:28:13;;;;;;;0.00;0.00;;;;;;;10.65;100.00;100104.94;6219101;22;20012;-73
2024/03/19 01:30:39;;;;;;;0.00;0.00;;;;;;;10.74;100.00;100125.16;6214838;22;20011;-73
2024/03/19 01:33:04;;;;;;;0.00;0.00;;;;;;;10.67;100.00;100107.41;6218186;22;19996;-74
2024/03/19 01:35:30;;;;;;;0.00;0.00;;;;;;;10.73;100.00;100112.59;6216488;22;20011;-74
2024/03/19 01:37:56;;;;;;;0.00;0.00;;;;;;;10.73;100.00;100106.28;6240249;22;20039;-75
2024/03/19 01:40:21;;;;;;;0.00;0.00;;;;;;;10.76;100.00;100103.00;6216276;22;20343;-74
2024/03/19 01:42:56;;;;;;;0.00;0.00;;;;;;;10.72;100.00;100102.75;6216245;22;20327;-73
2024/03/19 01:45:22;;;;;;;;;;;;;;;10.78;100.00;100098.91;6246219;22;20057;-74
2024/03/19 01:47:49;;;;;;;0.00;0.00;;;;;;;10.75;100.00;100088.53;6237604;22;19918;-73
2024/03/19 01:50:20;;;;;;;0.00;0.00;;;;;;;10.79;100.00;100094.25;6243010;22;20020;-73
2024/03/19 01:52:50;;;;;;;0.00;0.00;;;;;;;10.72;100.00;100082.75;6217210;22;20023;-74
2024/03/19 01:55:17;;;;;;;0.00;0.00;;;;;;;10.75;100.00;100080.31;6241532;22;20004;-73
2024/03/19 01:57:46;;;;;;;0.00;0.00;;;;;;;10.78;100.00;100092.63;6218073;22;20038;-74
2024/03/19 02:00:12;;;;;;;0.00;0.00;;;;;;;10.76;100.00;100097.53;6189013;22;20092;-73
2024/03/19 02:02:39;;;;;;;0.00;0.00;;;;;;;10.76;100.00;100083.88;6216973;22;20068;-74
2024/03/19 02:05:07;;;;;;;0.00;0.00;;;;;;;10.70;100.00;100084.97;6239462;22;20035;-74
2024/03/19 02:07:33;;;;;;;0.00;0.00;;;;;;;10.67;100.00;100074.59;6243524;22;20015;-73
2024/03/19 02:09:59;;;;;;;0.00;0.00;;;;;;;10.65;100.00;100061.19;6265073;22;20003;-73
2024/03/19 02:12:26;;;;;;;0.00;0.00;;;;;;;10.68;100.00;100074.31;6243252;22;20003;-73
2024/03/19 02:14:52;;;;;;;0.00;0.00;;;;;;;10.72;100.00;100077.31;6215458;22;20007;-73
2024/03/19 02:17:19;;;;;;;0.00;0.00;;;;;;;10.73;100.00;100078.94;6237006;22;20003;-73
2024/03/19 02:19:46;;;;;;;0.00;0.00;;;;;;;10.75;100.00;100082.25;6242744;22;20227;-73
2024/03/19 02:22:12;;;;;;;0.00;0.00;;;;;;;10.72;100.00;100077.31;6211788;22;20080;-72
2024/03/19 02:24:39;;;;;;;0.00;0.00;;;;;;;10.74;100.00;100084.13;6244007;22;20007;-73
2024/03/19 02:27:04;;;;;;;0.00;0.00;;;;;;;10.72;100.00;100085.50;6213063;22;20019;-74
2024/03/19 02:29:30;;;;;;;0.00;0.00;;;;;;;10.67;100.00;100074.59;6217797;22;20145;-74
2024/03/19 02:31:55;;;;;;;0.00;0.00;;;;;;;10.71;100.00;100067.47;6240009;22;20000;-74
2024/03/19 02:34:21;;;;;;;0.00;0.00;;;;;;;10.71;100.00;100070.22;6215942;22;20011;-74
2024/03/19 02:36:46;;;;;;;0.00;0.00;;;;;;;10.71;100.00;100078.41;6216882;22;20099;-74
2024/03/19 02:39:12;;;;;;;0.00;0.00;;;;;;;10.69;100.00;100066.91;6240918;22;20415;-74
2024/03/19 02:41:41;;;;;;;0.00;0.00;;;;;;;10.67;100.00;100069.13;6216487;22;20074;-73
2024/03/19 02:44:06;;;;;;;0.00;0.00;;;;;;;10.70;100.00;100074.03;6239973;22;20094;-74
2024/03/19 02:46:32;;;;;;;0.00;0.00;;;;;;;10.70;100.00;100068.56;6239254;22;20036;-73
2024/03/19 02:48:58;;;;;;;0.00;0.00;;;;;;;10.62;100.00;100064.47;6210697;22;20031;-74
2024/03/19 02:51:23;;;;;;;0.00;0.00;;;;;;;10.58;100.00;100066.13;6243178;22;20007;-73
2024/03/19 02:53:51;;;;;;;0.00;0.00;;;;;;;10.54;100.00;100065.88;6242914;22;20003;-73
2024/03/19 02:56:17;;;;;;;0.10;0.10;;;;;;;10.55;100.00;100056.53;6240085;22;20078;-74
2024/03/19 02:58:45;;;;;;;0.00;0.00;;;;;;;10.48;100.00;100039.59;6218635;22;20080;-73
2024/03/19 03:01:11;;;;;;;0.00;0.00;;;;;;;10.52;100.00;100068.03;6219317;22;20008;-73
2024/03/19 03:03:36;;;;;;;0.00;0.00;;;;;;;10.39;100.00;100047.53;6215318;22;20007;-74
2024/03/19 03:06:03;;;;;;;0.00;0.00;;;;;;;10.52;100.00;100062.56;6240546;22;20086;-73
2024/03/19 03:08:28;;;;;;;0.00;0.00;;;;;;;10.46;100.00;100066.41;6215803;22;20012;-74
2024/03/19 03:10:54;;;;;;;0.00;0.00;;;;;;;10.44;100.00;100065.84;6214767;22;20034;-74
2024/03/19 03:13:19;;;;;;;0.03;0.03;;;;;;;10.37;100.00;100066.13;6213726;22;19999;-73
2024/03/19 03:15:45;;;;;;;0.00;0.00;;;;;;;10.26;100.00;100065.25;6216920;22;20019;-74
2024/03/19 03:18:10;;;;;;;0.00;0.00;;;;;;;10.18;100.00;100067.72;6242353;22;20456;-73
2024/03/19 03:20:36;;;;;;;0.00;0.00;;;;;;;9.99;100.00;100048.28;6214731;22;20089;-73
2024/03/19 03:23:02;;;;;;;0.00;0.00;;;;;;;9.91;100.00;100077.78;6215576;22;20014;-74
2024/03/19 03:25:29;;;;;;;0.05;0.05;;;;;;;9.84;100.00;100063.59;6213892;22;20011;-73
2024/03/19 03:27:54;;;;;;;0.00;0.00;;;;;;;9.82;100.00;100073.94;6241551;22;20046;-73
2024/03/19 03:30:20;;;;;;;0.00;0.00;;;;;;;9.74;100.00;100069.03;6215927;22;20462;-73
2024/03/19 03:32:46;;;;;;;0.00;0.00;;;;;;;9.81;100.00;100079.69;6192157;22;20015;-73
2024/03/19 03:35:13;;;;;;;0.00;0.00;;;;;;;9.78;100.00;100064.66;6241261;22;20395;-74
2024/03/19 03:37:38;;;;;;;0.00;0.00;;;;;;;9.82;100.00;100056.75;6240931;22;20014;-74
2024/03/19 03:40:23;;;;;;;0.00;0.00;;;;;;;9.82;100.00;100070.41;6216361;22;20019;-74
2024/03/19 03:42:48;;;;;;;;;;;;;;;9.87;100.00;100073.13;6221604;22;20418;-74
2024/03/19 03:45:19;;;;;;;0.00;0.00;;;;;;;9.84;100.00;100057.28;6217732;22;19978;-74
2024/03/19 03:47:51;;;;;;;0.00;0.00;;;;;;;9.79;100.00;100066.28;6242662;22;20116;-73
2024/03/19 03:50:17;;;;;;;0.00;0.00;;;;;;;9.73;100.00;100059.19;6241681;22;20015;-73
2024/03/19 03:52:42;;;;;;;0.00;0.00;;;;;;;9.92;100.00;100087.63;6244499;22;20003;-74
2024/03/19 03:55:10;;;;;;;0.00;0.00;;;;;;;9.91;100.00;100085.97;6241633;22;20008;-74
2024/03/19 03:57:36;;;;;;;0.00;0.00;;;;;;;9.92;100.00;100095.81;6218987;22;20087;-73
2024/03/19 04:00:08;;;;;;;0.00;0.00;;;;;;;9.87;100.00;100081.31;6239975;22;20460;-73
2024/03/19 04:02:37;;;;;;;0.00;0.00;;;;;;;9.86;100.00;100071.50;6195822;22;20430;-73
2024/03/19 04:05:03;;;;;;;0.00;0.00;;;;;;;9.79;100.00;100071.75;6269041;22;20511;-73
2024/03/19 04:07:28;;;;;;;0.00;0.00;;;;;;;9.81;100.00;100085.94;6242284;22;20008;-72
2024/03/19 04:09:54;;;;;;;0.00;0.00;;;;;;;9.91;100.00;100098.81;6216922;22;20004;-72
2024/03/19 04:12:19;;;;;;;0.00;0.00;;;;;;;9.80;100.00;100081.59;6242174;22;20012;-74
2024/03/19 04:14:45;;;;;;;0.00;0.00;;;;;;;9.87;100.00;100084.91;6244035;22;20403;-73
2024/03/19 04:17:12;;;;;;;0.10;0.10;;;;;;;9.84;100.00;100090.06;6238952;22;20004;-73
2024/03/19 04:19:38;;;;;;;0.00;0.00;;;;;;;9.78;100.00;100081.03;6240276;22;20360;-73
2024/03/19 04:22:04;;;;;;;0.00;0.00;;;;;;;9.82;100.00;100087.59;6216221;22;20016;-73
2024/03/19 04:24:29;;;;;;;0.00;0.00;;;;;;;9.78;100.00;100086.50;6214878;22;20011;-73
2024/03/19 04:26:54;;;;;;;0.00;0.00;;;;;;;9.71;100.00;100088.66;6241283;22;20021;-73
2024/03/19 04:29:20;;;;;;;0.00;0.00;;;;;;;9.70;100.00;100087.03;6242120;22;20043;-73
2024/03/19 04:31:46;;;;;;;0.00;0.00;;;;;;;9.65;100.00;100067.91;6243955;22;19996;-74
2024/03/19 04:34:12;;;;;;;0.00;0.00;;;;;;;9.72;100.00;100093.03;6215809;22;20014;-73
2024/03/19 04:36:38;;;;;;;0.00;0.00;;;;;;;9.69;100.00;100088.13;6243041;22;20308;-74
2024/03/19 04:39:10;;;;;;;0.00;0.00;;;;;;;9.68;100.00;100073.66;6216488;22;20096;-74
2024/03/19 04:41:38;;;;;;;0.00;0.00;;;;;;;9.68;100.00;100075.53;6217648;22;20031;-74
2024/03/19 04:44:03;;;;;;;0.00;0.00;;;;;;;9.71;100.00;100075.84;6242086;22;20011;-73
2024/03/19 04:46:28;;;;;;;0.00;0.00;;;;;;;9.68;100.00;100070.09;6242566;22;20483;-74
2024/03/19 04:48:54;;;;;;;0.00;0.00;;;;;;;9.68;100.00;100073.66;6216365;22;20431;-74
2024/03/19 04:51:20;;;;;;;0.00;0.00;;;;;;;9.72;100.00;100068.47;6217226;22;20010;-74
2024/03/19 04:53:46;;;;;;;0.00;0.00;;;;;;;9.79;100.00;100085.41;6269310;22;20008;-74
2024/03/19 04:56:12;;;;;;;0.00;0.00;;;;;;;9.69;100.00;100064.34;6265939;22;20011;-74
2024/03/19 04:58:38;;;;;;;0.00;0.00;;;;;;;9.75;100.00;100070.66;6243035;22;20023;-73
2024/03/19 05:01:03;;;;;;;0.00;0.00;;;;;;;9.72;100.00;100060.28;6240314;22;20011;-74
2024/03/19 05:03:28;;;;;;;0.00;0.00;;;;;;;9.76;100.00;100055.91;6241285;22;20004;-74
2024/03/19 05:05:54;;;;;;;0.00;0.00;;;;;;;9.78;100.00;100053.72;6215002;22;20008;-74
2024/03/19 05:08:19;;;;;;;0.00;0.00;;;;;;;9.73;100.00;100034.63;6216771;22;20011;-73
2024/03/19 05:10:45;;;;;;;0.00;0.00;;;;;;;9.72;100.00;100032.97;6215980;22;20328;-74
2024/03/19 05:13:10;;;;;;;0.00;0.00;;;;;;;9.71;100.00;100031.31;6240229;22;20007;-73
2024/03/19 05:15:35;;;;;;;0.00;0.00;;;;;;;9.78;100.00;100048.25;6216844;22;20014;-74
2024/03/19 05:18:02;;;;;;;0.00;0.00;;;;;;;9.79;100.00;100049.91;6215257;22;20338;-73
2024/03/19 05:20:27;;;;;;;0.00;0.00;;;;;;;9.81;100.00;100052.38;6217494;22;20018;-73
2024/03/19 05:22:53;;;;;;;0.00;0.00;;;;;;;9.88;100.00;100047.47;6241167;22;20713;-74
2024/03/19 05:25:18;;;;;;;0.00;0.00;;;;;;;9.91;100.00;100053.19;6216541;22;20064;-73
2024/03/19 05:27:44;;;;;;;0.10;0.10;;;;;;;9.94;100.00;100060.88;6240847;22;20010;-74
2024/03/19 05:30:10;;;;;;;0.00;0.00;;;;;;;9.95;100.00;100059.75;6242007;22;20031;-73
2024/03/19 05:32:36;;;;;;;0.00;0.00;;;;;;;9.91;100.00;100046.94;6225260;22;20011;-73
2024/03/19 05:35:02;;;;;;;0.00;0.00;;;;;;;10.00;100.00;100055.41;6215362;22;20027;-73
2024/03/19 05:37:27;;;;;;;0.00;0.00;;;;;;;10.01;100.00;100051.59;6217643;22;20090;-73
2024/03/19 05:39:52;;;;;;;0.00;0.00;;;;;;;10.03;100.00;100054.84;6216433;22;20008;-73
2024/03/19 05:42:18;;;;;;;0.00;0.00;;;;;;;10.02;100.00;100055.97;6216156;22;20008;-74
2024/03/19 05:44:43;;;;;;;0.00;0.00;;;;;;;10.07;100.00;100055.97;6240816;22;20007;-74
2024/03/19 05:47:09;;;;;;;0.00;0.00;;;;;;;10.11;100.00;100059.81;6217779;22;20042;-74
2024/03/19 05:49:35;;;;;;;0.00;0.00;;;;;;;10.13;100.00;100071.25;6241489;22;20027;-74
2024/03/19 05:52:00;;;;;;;0.00;0.00;;;;;;;10.17;100.00;100058.72;6215970;22;20003;-73
2024/03/19 05:54:25;;;;;;;0.00;0.00;;;;;;;10.26;100.00;100081.66;6243304;22;20106;-73
2024/03/19 05:56:51;;;;;;;0.00;0.00;;;;;;;10.26;100.00;100065.25;6217369;22;20304;-73
2024/03/19 05:59:16;;;;;;;0.00;0.00;;;;;;;10.31;100.00;100072.66;6216898;22;20007;-74
2024/03/19 06:01:42;;;;;;;0.00;0.00;;;;;;;10.37;100.00;100092.66;6243374;22;20441;-74
2024/03/19 06:04:07;;;;;;;0.00;0.00;;;;;;;10.25;100.00;100071.84;6267787;22;20016;-73
2024/03/19 06:06:33;;;;;;;0.03;0.03;;;;;;;10.28;100.00;100068.56;6243955;22;20031;-73
2024/03/19 06:08:58;;;;;;;0.00;0.00;;;;;;;10.33;100.00;100080.59;6214789;22;20004;-74
2024/03/19 06:11:25;;;;;;;0.00;0.00;;;;;;;10.31;100.00;100072.66;6192753;22;20369;-74
2024/03/19 06:13:51;;;;;;;0.00;0.00;;;;;;;10.31;100.00;100069.94;6242515;22;20008;-75
2024/03/19 06:16:17;;;;;;;0.00;0.00;;;;;;;10.27;100.00;100066.91;6241877;22;20053;-73
2024/03/19 06:18:42;;;;;;;0.00;0.00;;;;;;;10.27;100.00;100077.03;6243647;22;20004;-74
2024/03/19 06:21:07;;;;;;;0.00;0.00;;;;;;;10.23;100.00;100071.28;6214910;22;20297;-73
2024/03/19 06:23:33;;;;;;;0.00;0.00;;;;;;;10.38;100.00;100094.28;6218011;22;20012;-73
2024/03/19 06:26:08;;;;;;;0.00;0.00;;;;;;;10.37;100.00;100098.13;6215835;22;20016;-74
2024/03/19 06:28:34;;;;;;;0.00;0.00;;;;;;;10.33;100.00;100086.88;6220567;22;20012;-73
2024/03/19 06:30:59;;;;;;;0.00;0.00;;;;;;;10.32;100.00;100090.69;6216668;22;20065;-73
2024/03/19 06:33:25;;;;;;;0.10;0.10;;;;;;;10.45;100.00;100120.25;6215299;22;20017;-73
2024/03/19 06:35:50;;;;;;;0.00;0.00;;;;;;;10.46;100.00;100107.41;6215911;22;20008;-73
2024/03/19 06:38:16;;;;;;;0.00;0.00;;;;;;;10.54;100.00;100114.22;6241999;22;20011;-73
2024/03/19 06:40:43;;;;;;;0.00;0.00;;;;;;;10.55;100.00;100105.75;6216366;22;20016;-74
2024/03/19 06:43:08;;;;;;;0.00;0.00;;;;;;;10.60;100.00;100113.13;6241511;22;20629;-74
2024/03/19 06:45:34;;;;;;;0.00;0.00;;;;;;;10.62;100.00;100109.03;6266290;22;20086;-72
2024/03/19 06:48:08;;;;;;;0.03;0.03;;;;;;;10.56;100.00;100101.94;6214338;22;20434;-73
2024/03/19 06:50:34;;;;;;;0.00;0.00;;;;;;;10.53;100.00;100097.03;6237194;22;20015;-72
2024/03/19 06:53:00;;;;;;;0.00;0.00;;;;;;;10.53;100.00;100113.41;6238861;22;20004;-74
2024/03/19 06:55:25;;;;;;;0.00;0.00;;;;;;;10.57;100.00;100120.00;6266486;22;20342;-75
2024/03/19 06:57:52;;;;;;;0.00;0.00;;;;;;;10.59;100.00;100127.91;6243123;22;20012;-73
2024/03/19 07:00:19;;;;;;;0.00;0.00;;;;;;;10.52;100.00;100122.72;6217100;22;20016;-75
2024/03/19 07:02:46;;;;;;;0.00;0.00;;;;;;;10.45;100.00;100116.69;6241849;22;20383;-75
2024/03/19 07:05:12;;;;;;;0.00;0.00;;;;;;;10.47;100.00;100117.25;6218202;22;20373;-75
2024/03/19 07:07:41;;;;;;;0.00;0.00;;;;;;;10.53;100.00;100129.81;6240158;22;20064;-73
2024/03/19 07:10:10;;;;;;;0.00;0.00;;;;;;;10.59;100.00;100145.13;6244066;22;19996;-74
2024/03/19 07:12:35;;;;;;;0.00;0.00;;;;;;;10.53;100.00;100124.34;6239062;22;20006;-75
2024/03/19 07:15:03;;;;;;;0.00;0.00;;;;;;;10.56;100.00;100123.00;6218175;22;19999;-74
2024/03/19 07:17:30;;;;;;;0.00;0.00;;;;;;;10.53;100.00;100123.53;6215032;22;20011;-74
2024/03/19 07:19:58;;;;;;;0.00;0.00;;;;;;;10.43;100.00;100114.22;6245133;22;20423;-75
2024/03/19 07:26:42;;;;;;;0.00;0.00;;;;;;;10.57;100.00;100147.34;6119603;23;20025;-74
2024/03/19 07:29:19;;;;;;;0.00;0.00;;;;;;;10.50;100.00;100149.50;6137376;22;20032;-75
2024/03/19 07:31:44;;;;;;;0.00;0.00;;;;;;;10.37;100.00;100141.84;6270922;22;20019;-74
2024/03/19 07:34:10;;;;;;;0.10;0.10;;;;;;;10.39;100.00;100150.59;6272499;22;20004;-73
2024/03/19 07:36:40;;;;;;;0.10;0.10;;;;;;;10.39;100.00;100154.13;6272073;22;20031;-75
2024/03/19 07:39:11;;;;;;;0.00;0.00;;;;;;;10.24;100.00;100163.09;6272022;22;20015;-72
2024/03/19 07:42:09;;;;;;;0.00;0.00;;;;;;;10.05;100.00;100162.78;6244566;22;20327;-74
2024/03/19 07:44:50;;;;;;;;;;;;;;;;;;;;;
2024/03/19 07:47:16;;;;;;;0.00;0.00;;;;;;;9.71;100.00;100121.41;6269131;22;20083;-75
2024/03/19 07:49:42;;;;;;;0.00;0.00;;;;;;;9.89;100.00;100153.72;6242458;22;20055;-79
2024/03/19 07:52:07;;;;;;;0.00;0.00;;;;;;;9.96;100.00;100164.41;6216198;22;20070;-76
2024/03/19 07:54:53;;;;;;;0.00;0.00;;;;;;;9.75;100.00;100130.72;6242920;22;20012;-78
2024/03/19 07:57:30;;;;;;;0.00;0.00;;;;;;;9.72;100.00;100120.34;6268035;22;20414;-76
2024/03/19 08:00:05;;;;;;;0.00;0.00;;;;;;;9.81;100.00;100129.66;6243871;22;20003;-77
2024/03/19 08:02:31;;;;;;;0.00;0.00;;;;;;;10.03;100.00;100161.41;6242857;22;20008;-78
2024/03/19 08:04:56;;;;;;;0.00;0.00;;;;;;;10.07;100.00;100187.09;6220347;22;20061;-76
2024/03/19 08:07:22;;;;;;;0.00;0.00;;;;;;;10.05;100.00;100179.19;6215938;22;20012;-77
2024/03/19 08:09:57;;;;;;;;;;;;;;;;;;;;;
2024/03/19 08:12:25;;;;;;;0.00;0.00;;;;;;;10.00;100.00;100161.94;6268378;22;20075;-76
2024/03/19 08:14:54;;;;;;;0.00;0.00;;;;;;;9.89;100.00;100152.91;6244847;22;20073;-77
2024/03/19 08:17:22;;;;;;;0.00;0.00;;;;;;;10.05;100.00;100179.19;6242161;22;20012;-76
2024/03/19 08:19:47;;;;;;;0.00;0.00;;;;;;;10.14;100.00;100206.78;6270584;22;20460;-76
2024/03/19 08:22:13;;;;;;;0.00;0.00;;;;;;;10.01;100.00;100160.88;6240645;22;20023;-76
2024/03/19 08:25:04;;;;;;;0.00;0.00;;;;;;;9.96;100.00;100170.69;6242378;22;20090;-75
2024/03/19 08:27:30;;;;;;;0.00;0.00;;;;;;;10.12;100.00;100195.31;6243010;22;20044;-76
2024/03/19 08:30:05;;;;;;;;;;;;;;;;;;;;;
2024/03/19 08:32:33;;;;;;;0.00;0.00;;;;;;;10.12;100.00;100190.69;6271393;22;20537;-76
2024/03/19 08:34:58;;;;;;;0.00;0.00;;;;;;;10.07;100.00;100178.91;6217254;22;20098;-76
2024/03/19 08:37:24;;;;;;;0.00;0.00;;;;;;;10.22;100.00;100206.28;6219726;22;20435;-76
2024/03/19 08:39:53;;;;;;;0.00;0.00;;;;;;;10.21;100.00;100193.69;6234214;22;20322;-75
2024/03/19 08:42:19;;;;;;;0.00;0.00;;;;;;;10.34;100.00;100197.03;6216780;22;20011;-76
2024/03/19 08:44:44;;;;;;;0.00;0.00;;;;;;;10.30;100.00;100186.63;6244511;22;20102;-75
2024/03/19 08:47:10;;;;;;;0.00;0.00;;;;;;;10.33;100.00;100217.25;6269342;22;20204;-75
2024/03/19 08:49:35;;;;;;;0.00;0.00;;;;;;;10.10;100.00;100202.94;6243099;22;20031;-75
2024/03/19 08:52:01;;;;;;;0.00;0.00;;;;;;;10.23;100.00;100213.38;6216609;22;20372;-76
2024/03/19 08:54:27;;;;;;;0.00;0.00;;;;;;;10.25;100.00;100216.69;6244849;22;20023;-77
2024/03/19 08:56:53;;;;;;;0.00;0.00;;;;;;;10.18;100.00;100198.88;6243974;22;20426;-77
2024/03/19 08:59:20;;;;;;;0.00;0.00;;;;;;;10.20;100.00;100208.44;6239889;22;20022;-76
2024/03/19 09:01:56;;;;;;;0.00;0.00;;;;;;;10.20;100.00;100199.44;6220061;22;20000;-77
2024/03/19 09:04:21;;;;;;;0.00;0.00;;;;;;;10.15;100.00;100194.78;6268021;22;20018;-78
2024/03/19 09:06:51;;;;;;;0.00;0.00;;;;;;;10.29;100.00;100206.84;6219083;22;20035;-78
2024/03/19 09:09:29;;;;;;;;;;;;;;;;;;;;;
2024/03/19 09:11:55;;;;;;;0.00;0.00;;;;;;;10.39;100.00;100222.47;6247293;22;20360;-77
2024/03/19 09:14:20;;;;;;;0.00;0.00;;;;;;;10.44;100.00;100224.38;6239394;22;20023;-79
2024/03/19 09:16:46;;;;;;;0.00;0.00;;;;;;;10.48;100.00;100226.34;6244726;22;20003;-77
2024/03/19 09:19:11;;;;;;;0.00;0.00;;;;;;;10.53;100.00;100228.25;6267953;22;20370;-76
2024/03/19 09:21:37;;;;;;;0.00;0.00;;;;;;;10.55;100.00;100208.84;6244293;22;20034;-77
2024/03/19 09:24:02;;;;;;;0.00;0.00;;;;;;;10.56;100.00;100226.91;6217847;22;20437;-77
2024/03/19 09:26:28;;;;;;;0.00;0.00;;;;;;;10.75;100.00;100254.53;6217017;22;20008;-77
2024/03/19 09:28:56;;;;;;;0.00;0.00;;;;;;;10.61;100.00;100229.63;6219800;22;20060;-76
2024/03/19 09:31:31;;;;;;;0.00;0.00;;;;;;;10.67;100.00;100233.19;6242497;22;20003;-77
2024/03/19 09:33:56;;;;;;;0.00;0.00;;;;;;;10.60;100.00;100228.81;6219158;22;20010;-76
2024/03/19 09:36:29;;;;;;;0.00;0.00;;;;;;;10.70;100.00;100240.84;6243952;22;20008;-76
2024/03/19 09:38:54;;;;;;;0.00;0.00;;;;;;;10.68;100.00;100234.84;6219824;22;20034;-76
2024/03/19 09:41:22;;;;;;;0.00;0.00;;;;;;;10.71;100.00;100239.78;6245248;22;20323;-77
2024/03/19 09:44:03;;;;;;;0.00;0.00;;;;;;;10.68;100.00;100234.84;6269201;22;20004;-76
2024/03/19 09:46:29;;;;;;;0.00;0.00;;;;;;;10.69;100.00;100231.00;6245277;22;20007;-77
2024/03/19 09:49:03;;;;;;;0.00;0.00;;;;;;;10.66;100.00;100235.13;6267303;22;20015;-76
2024/03/19 09:51:37;;;;;;;0.00;0.00;;;;;;;10.94;100.00;100255.66;6219897;22;20000;-76
2024/03/19 09:54:06;;;;;;;0.00;0.00;;;;;;;10.88;100.00;100234.88;6240606;22;20020;-77
2024/03/19 09:56:31;;;;;;;0.00;0.00;;;;;;;10.86;100.00;100247.16;6196064;22;20007;-76
2024/03/19 09:59:04;;;;;;;0.05;0.05;;;;;;;10.81;100.00;100245.25;6240313;22;20015;-77
2024/03/19 10:01:30;;;;;;;0.00;0.00;;;;;;;10.86;100.00;100258.91;6218806;22;20012;-76
2024/03/19 10:03:57;;;;;;;0.00;0.00;;;;;;;10.73;100.00;100237.56;6267684;22;20449;-77
2024/03/19 10:06:22;;;;;;;0.00;0.00;;;;;;;10.88;100.00;100270.44;6271296;22;20003;-76
2024/03/19 10:08:48;;;;;;;0.00;0.00;;;;;;;10.76;100.00;100237.03;6193967;22;20066;-76
2024/03/19 10:11:14;;;;;;;0.00;0.00;;;;;;;10.91;100.00;100260.84;6216806;22;20004;-77
2024/03/19 10:13:42;;;;;;;0.00;0.00;;;;;;;11.05;100.00;100266.59;6244300;22;20307;-77
2024/03/19 10:16:18;;;;;;;0.00;0.00;;;;;;;11.00;100.00;100254.56;6216950;22;20015;-77
2024/03/19 10:18:43;;;;;;;0.00;0.00;;;;;;;11.17;100.00;100248.81;6245757;22;20007;-79
2024/03/19 10:21:15;;;;;;;0.00;0.00;;;;;;;11.19;100.00;100270.44;6216680;22;20008;-77
2024/03/19 10:23:40;;;;;;;0.00;0.00;;;;;;;11.27;100.00;100277.28;6268863;22;20094;-76
2024/03/19 10:26:16;;;;;;;;;;;;;;;;;;;;;
2024/03/19 10:28:44;;;;;;;0.00;0.00;;;;;;;11.50;100.00;100278.63;6246517;22;20096;-77
2024/03/19 10:31:10;;;;;;;0.00;0.00;;;;;;;11.47;100.00;100269.03;6264723;22;20086;-76
2024/03/19 10:33:37;;;;;;;0.00;0.00;;;;;;;11.28;100.00;100257.03;6221625;22;20010;-76
2024/03/19 10:36:04;;;;;;;0.00;0.00;;;;;;;11.25;100.00;100261.13;6245277;22;20451;-76
2024/03/19 10:38:30;;;;;;;0.00;0.00;;;;;;;11.46;100.00;100280.28;6235264;22;20028;-77
2024/03/19 10:41:01;;;;;;;0.00;0.00;;;;;;;11.56;100.00;100272.03;6231424;22;20312;-76
2024/03/19 10:43:36;;;;;;;0.00;0.00;;;;;;;11.48;100.00;100269.88;6221512;22;20311;-76
2024/03/19 10:46:11;;;;;;;0.00;0.00;;;;;;;11.35;100.00;100263.03;6240629;22;20011;-75
2024/03/19 10:48:40;;;;;;;0.00;0.00;;;;;;;11.38;100.00;100275.38;6241747;22;20003;-75
2024/03/19 10:51:09;;;;;;;0.00;0.00;;;;;;;11.37;100.00;100281.94;6212841;23;20431;-76
2024/03/19 10:53:38;;;;;;;0.00;0.00;;;;;;;11.28;100.00;100270.72;6240318;23;20386;-77
2024/03/19 10:56:05;;;;;;;0.00;0.00;;;;;;;11.24;100.00;100259.47;6186997;23;20110;-77
2024/03/19 10:58:35;;;;;;;0.00;0.00;;;;;;;11.27;100.00;100250.75;6214803;23;20090;-75
2024/03/19 11:01:06;;;;;;;0.00;0.00;;;;;;;11.43;100.00;100262.47;6212112;23;20008;-75
2024/03/19 11:03:34;;;;;;;0.00;0.00;;;;;;;11.68;100.00;100258.88;6212127;23;20637;-77
2024/03/19 11:06:05;;;;;;;0.00;0.00;;;;;;;11.99;100.00;100263.50;6208271;23;20012;-76
2024/03/19 11:08:38;;;;;;;0.00;0.00;;;;;;;12.07;100.00;100264.81;6196985;23;20008;-75
2024/03/19 11:11:08;;;;;;;0.00;0.00;;;;;;;12.08;100.00;100261.00;6214682;23;20574;-76
2024/03/19 11:13:34;;;;;;;0.00;0.00;;;;;;;11.92;100.00;100252.78;6227231;23;20030;-77
2024/03/19 11:16:00;;;;;;;0.00;0.00;;;;;;;11.93;100.00;100270.91;6239271;23;20000;-76
2024/03/19 11:18:28;;;;;;;0.00;0.00;;;;;;;12.13;100.00;100269.19;6190855;23;20090;-76
2024/03/19 11:20:54;;;;;;;0.00;0.00;;;;;;;12.46;100.00;100250.41;6208578;23;20661;-76
2024/03/19 11:23:30;;;;;;;0.00;0.00;;;;;;;12.97;100.00;100271.19;6224562;23;20008;-76
2024/03/19 11:26:01;;;;;;;0.00;0.00;;;;;;;12.80;100.00;100271.59;6189498;23;20091;-77
2024/03/19 11:28:30;;;;;;;0.00;0.00;;;;;;;12.85;100.00;100301.72;6187417;23;20076;-76
2024/03/19 11:30:59;;;;;;;0.00;0.00;;;;;;;12.53;100.00;100284.63;6186084;23;20008;-76